sensor_id;sensor_type;location;lat;lon;timestamp;P1;durP1;ratioP1;P2;durP2;ratioP2
2896;SDS011;1458;49.728;9.228;2022-08-21T00:01:43;2.10;;;2.10;;
2896;SDS011;1458;49.728;9.228;2022-08-21T00:04:10;1.90;;;1.90;;
2896;SDS011;1458;49.728;9.228;2022-08-21T00:06:38;2.30;;;2.30;;
2896;SDS011;1458;49.728;9.228;2022-08-21T00:09:06;2.10;;;2.10;;
2896;SDS011;1458;49.728;9.228;2022-08-21T00:11:40;1.80;;;1.80;;
2896;SDS011;1458;49.728;9.228;2022-08-21T00:14:08;1.73;;;1.73;;
2896;SDS011;1458;49.728;9.228;2022-08-21T00:16:37;1.80;;;1.80;;
2896;SDS011;1458;49.728;9.228;2022-08-21T00:19:05;2.00;;;2.00;;
2896;SDS011;1458;49.728;9.228;2022-08-21T00:21:34;2.00;;;2.00;;
2896;SDS011;1458;49.728;9.228;2022-08-21T00:24:02;2.00;;;2.00;;
2896;SDS011;1458;49.728;9.228;2022-08-21T00:26:31;1.80;;;1.80;;
2896;SDS011;1458;49.728;9.228;2022-08-21T00:29:00;1.80;;;1.80;;
2896;SDS011;1458;49.728;9.228;2022-08-21T00:31:30;1.80;;;1.80;;
2896;SDS011;1458;49.728;9.228;2022-08-21T00:33:58;1.40;;;1.40;;
2896;SDS011;1458;49.728;9.228;2022-08-21T00:36:25;1.50;;;1.50;;
2896;SDS011;1458;49.728;9.228;2022-08-21T00:38:53;1.50;;;1.50;;
2896;SDS011;1458;49.728;9.228;2022-08-21T00:41:20;1.57;;;1.57;;
2896;SDS011;1458;49.728;9.228;2022-08-21T00:43:49;1.30;;;1.30;;
2896;SDS011;1458;49.728;9.228;2022-08-21T00:49:16;1.20;;;1.20;;
2896;SDS011;1458;49.728;9.228;2022-08-21T00:51:47;1.30;;;1.30;;
2896;SDS011;1458;49.728;9.228;2022-08-21T00:54:17;1.40;;;1.40;;
2896;SDS011;1458;49.728;9.228;2022-08-21T00:56:48;1.40;;;1.40;;
2896;SDS011;1458;49.728;9.228;2022-08-21T00:59:27;1.50;;;1.50;;
2896;SDS011;1458;49.728;9.228;2022-08-21T01:02:01;1.20;;;1.20;;
2896;SDS011;1458;49.728;9.228;2022-08-21T01:04:30;1.00;;;1.00;;
2896;SDS011;1458;49.728;9.228;2022-08-21T01:06:57;1.20;;;1.20;;
2896;SDS011;1458;49.728;9.228;2022-08-21T01:09:25;1.10;;;1.10;;
2896;SDS011;1458;49.728;9.228;2022-08-21T01:11:52;1.10;;;1.10;;
2896;SDS011;1458;49.728;9.228;2022-08-21T01:14:20;0.90;;;0.90;;
2896;SDS011;1458;49.728;9.228;2022-08-21T01:16:49;1.10;;;1.10;;
2896;SDS011;1458;49.728;9.228;2022-08-21T01:19:21;1.10;;;1.10;;
2896;SDS011;1458;49.728;9.228;2022-08-21T01:21:51;1.00;;;1.00;;
2896;SDS011;1458;49.728;9.228;2022-08-21T01:24:18;1.00;;;1.00;;
2896;SDS011;1458;49.728;9.228;2022-08-21T01:26:47;1.00;;;1.00;;
2896;SDS011;1458;49.728;9.228;2022-08-21T01:29:23;0.90;;;0.90;;
2896;SDS011;1458;49.728;9.228;2022-08-21T01:31:57;1.10;;;1.10;;
2896;SDS011;1458;49.728;9.228;2022-08-21T01:34:24;0.90;;;0.90;;
2896;SDS011;1458;49.728;9.228;2022-08-21T01:36:53;0.90;;;0.90;;
2896;SDS011;1458;49.728;9.228;2022-08-21T01:39:21;0.90;;;0.90;;
2896;SDS011;1458;49.728;9.228;2022-08-21T01:41:48;0.90;;;0.90;;
2896;SDS011;1458;49.728;9.228;2022-08-21T01:44:16;0.90;;;0.90;;
2896;SDS011;1458;49.728;9.228;2022-08-21T01:46:47;1.00;;;1.00;;
2896;SDS011;1458;49.728;9.228;2022-08-21T01:49:15;1.00;;;1.00;;
2896;SDS011;1458;49.728;9.228;2022-08-21T01:51:43;1.00;;;1.00;;
2896;SDS011;1458;49.728;9.228;2022-08-21T01:54:12;0.87;;;0.87;;
2896;SDS011;1458;49.728;9.228;2022-08-21T01:56:41;0.80;;;0.80;;
2896;SDS011;1458;49.728;9.228;2022-08-21T01:59:13;0.60;;;0.60;;
2896;SDS011;1458;49.728;9.228;2022-08-21T02:01:41;0.70;;;0.70;;
2896;SDS011;1458;49.728;9.228;2022-08-21T02:04:09;0.50;;;0.50;;
2896;SDS011;1458;49.728;9.228;2022-08-21T02:06:40;0.60;;;0.60;;
2896;SDS011;1458;49.728;9.228;2022-08-21T02:09:08;0.60;;;0.60;;
2896;SDS011;1458;49.728;9.228;2022-08-21T02:11:39;0.60;;;0.60;;
2896;SDS011;1458;49.728;9.228;2022-08-21T02:14:08;0.60;;;0.60;;
2896;SDS011;1458;49.728;9.228;2022-08-21T02:16:38;0.50;;;0.50;;
2896;SDS011;1458;49.728;9.228;2022-08-21T02:19:06;0.40;;;0.40;;
2896;SDS011;1458;49.728;9.228;2022-08-21T02:21:35;0.50;;;0.50;;
2896;SDS011;1458;49.728;9.228;2022-08-21T02:24:02;0.50;;;0.50;;
2896;SDS011;1458;49.728;9.228;2022-08-21T02:26:32;0.60;;;0.60;;
2896;SDS011;1458;49.728;9.228;2022-08-21T02:29:01;0.50;;;0.50;;
2896;SDS011;1458;49.728;9.228;2022-08-21T02:31:30;0.60;;;0.60;;
2896;SDS011;1458;49.728;9.228;2022-08-21T02:33:57;0.50;;;0.50;;
2896;SDS011;1458;49.728;9.228;2022-08-21T02:36:25;0.57;;;0.57;;
2896;SDS011;1458;49.728;9.228;2022-08-21T02:38:52;0.50;;;0.50;;
2896;SDS011;1458;49.728;9.228;2022-08-21T02:41:26;0.50;;;0.50;;
2896;SDS011;1458;49.728;9.228;2022-08-21T02:43:55;0.53;;;0.53;;
2896;SDS011;1458;49.728;9.228;2022-08-21T02:49:12;0.50;;;0.50;;
2896;SDS011;1458;49.728;9.228;2022-08-21T02:51:42;0.40;;;0.40;;
2896;SDS011;1458;49.728;9.228;2022-08-21T02:54:09;0.50;;;0.50;;
2896;SDS011;1458;49.728;9.228;2022-08-21T02:56:37;0.60;;;0.60;;
2896;SDS011;1458;49.728;9.228;2022-08-21T02:59:05;0.60;;;0.60;;
2896;SDS011;1458;49.728;9.228;2022-08-21T03:01:39;0.50;;;0.50;;
2896;SDS011;1458;49.728;9.228;2022-08-21T03:04:06;0.60;;;0.60;;
2896;SDS011;1458;49.728;9.228;2022-08-21T03:06:34;0.50;;;0.50;;
2896;SDS011;1458;49.728;9.228;2022-08-21T03:09:03;0.60;;;0.60;;
2896;SDS011;1458;49.728;9.228;2022-08-21T03:11:31;0.70;;;0.70;;
2896;SDS011;1458;49.728;9.228;2022-08-21T03:13:58;0.50;;;0.50;;
2896;SDS011;1458;49.728;9.228;2022-08-21T03:16:36;0.60;;;0.60;;
2896;SDS011;1458;49.728;9.228;2022-08-21T03:19:04;0.60;;;0.60;;
2896;SDS011;1458;49.728;9.228;2022-08-21T03:21:32;0.50;;;0.50;;
2896;SDS011;1458;49.728;9.228;2022-08-21T03:24:00;0.40;;;0.40;;
2896;SDS011;1458;49.728;9.228;2022-08-21T03:26:28;0.50;;;0.50;;
2896;SDS011;1458;49.728;9.228;2022-08-21T03:28:55;0.40;;;0.40;;
2896;SDS011;1458;49.728;9.228;2022-08-21T03:31:26;0.47;;;0.47;;
2896;SDS011;1458;49.728;9.228;2022-08-21T03:33:57;0.43;;;0.43;;
2896;SDS011;1458;49.728;9.228;2022-08-21T03:36:34;0.30;;;0.30;;
2896;SDS011;1458;49.728;9.228;2022-08-21T03:39:03;0.50;;;0.50;;
2896;SDS011;1458;49.728;9.228;2022-08-21T03:41:30;0.40;;;0.40;;
2896;SDS011;1458;49.728;9.228;2022-08-21T03:43:58;0.40;;;0.40;;
2896;SDS011;1458;49.728;9.228;2022-08-21T03:46:29;0.40;;;0.40;;
2896;SDS011;1458;49.728;9.228;2022-08-21T03:48:58;0.47;;;0.47;;
2896;SDS011;1458;49.728;9.228;2022-08-21T03:51:26;0.50;;;0.50;;
2896;SDS011;1458;49.728;9.228;2022-08-21T03:54:02;0.40;;;0.40;;
2896;SDS011;1458;49.728;9.228;2022-08-21T03:56:30;0.40;;;0.40;;
2896;SDS011;1458;49.728;9.228;2022-08-21T03:58:58;0.50;;;0.50;;
2896;SDS011;1458;49.728;9.228;2022-08-21T04:01:50;0.40;;;0.40;;
2896;SDS011;1458;49.728;9.228;2022-08-21T04:04:22;0.50;;;0.50;;
2896;SDS011;1458;49.728;9.228;2022-08-21T04:06:50;0.47;;;0.47;;
2896;SDS011;1458;49.728;9.228;2022-08-21T04:09:18;0.50;;;0.50;;
2896;SDS011;1458;49.728;9.228;2022-08-21T04:11:46;0.40;;;0.40;;
2896;SDS011;1458;49.728;9.228;2022-08-21T04:14:14;0.50;;;0.50;;
2896;SDS011;1458;49.728;9.228;2022-08-21T04:16:43;0.40;;;0.40;;
2896;SDS011;1458;49.728;9.228;2022-08-21T04:19:11;0.50;;;0.50;;
2896;SDS011;1458;49.728;9.228;2022-08-21T04:21:41;0.40;;;0.40;;
2896;SDS011;1458;49.728;9.228;2022-08-21T04:24:09;0.40;;;0.40;;
2896;SDS011;1458;49.728;9.228;2022-08-21T04:26:37;0.40;;;0.40;;
2896;SDS011;1458;49.728;9.228;2022-08-21T04:29:06;0.40;;;0.40;;
2896;SDS011;1458;49.728;9.228;2022-08-21T04:31:34;0.40;;;0.40;;
2896;SDS011;1458;49.728;9.228;2022-08-21T04:34:03;0.40;;;0.40;;
2896;SDS011;1458;49.728;9.228;2022-08-21T04:36:31;0.40;;;0.40;;
2896;SDS011;1458;49.728;9.228;2022-08-21T04:39:01;0.50;;;0.50;;
2896;SDS011;1458;49.728;9.228;2022-08-21T04:41:29;0.40;;;0.40;;
2896;SDS011;1458;49.728;9.228;2022-08-21T04:43:56;0.40;;;0.40;;
2896;SDS011;1458;49.728;9.228;2022-08-21T04:46:24;0.37;;;0.37;;
2896;SDS011;1458;49.728;9.228;2022-08-21T04:48:52;0.40;;;0.40;;
2896;SDS011;1458;49.728;9.228;2022-08-21T04:51:24;0.30;;;0.30;;
2896;SDS011;1458;49.728;9.228;2022-08-21T04:53:57;0.33;;;0.33;;
2896;SDS011;1458;49.728;9.228;2022-08-21T04:56:39;0.40;;;0.40;;
2896;SDS011;1458;49.728;9.228;2022-08-21T04:59:12;0.40;;;0.40;;
2896;SDS011;1458;49.728;9.228;2022-08-21T05:01:44;0.40;;;0.40;;
2896;SDS011;1458;49.728;9.228;2022-08-21T05:04:13;0.40;;;0.40;;
2896;SDS011;1458;49.728;9.228;2022-08-21T05:06:43;0.30;;;0.30;;
2896;SDS011;1458;49.728;9.228;2022-08-21T05:09:16;0.40;;;0.40;;
2896;SDS011;1458;49.728;9.228;2022-08-21T05:11:45;0.40;;;0.40;;
2896;SDS011;1458;49.728;9.228;2022-08-21T05:14:14;0.50;;;0.50;;
2896;SDS011;1458;49.728;9.228;2022-08-21T05:16:42;0.40;;;0.40;;
2896;SDS011;1458;49.728;9.228;2022-08-21T05:19:10;0.43;;;0.43;;
2896;SDS011;1458;49.728;9.228;2022-08-21T05:21:39;0.50;;;0.50;;
2896;SDS011;1458;49.728;9.228;2022-08-21T05:24:09;0.40;;;0.40;;
2896;SDS011;1458;49.728;9.228;2022-08-21T05:26:38;0.40;;;0.40;;
2896;SDS011;1458;49.728;9.228;2022-08-21T05:29:06;0.40;;;0.40;;
2896;SDS011;1458;49.728;9.228;2022-08-21T05:31:34;0.40;;;0.40;;
2896;SDS011;1458;49.728;9.228;2022-08-21T05:34:01;0.40;;;0.40;;
2896;SDS011;1458;49.728;9.228;2022-08-21T05:36:29;0.40;;;0.40;;
2896;SDS011;1458;49.728;9.228;2022-08-21T05:38:57;0.40;;;0.40;;
2896;SDS011;1458;49.728;9.228;2022-08-21T05:41:24;0.40;;;0.40;;
2896;SDS011;1458;49.728;9.228;2022-08-21T05:43:53;0.40;;;0.40;;
2896;SDS011;1458;49.728;9.228;2022-08-21T05:46:30;0.40;;;0.40;;
2896;SDS011;1458;49.728;9.228;2022-08-21T05:48:58;0.40;;;0.40;;
2896;SDS011;1458;49.728;9.228;2022-08-21T05:51:25;0.40;;;0.40;;
2896;SDS011;1458;49.728;9.228;2022-08-21T05:53:52;0.50;;;0.50;;
2896;SDS011;1458;49.728;9.228;2022-08-21T05:56:26;0.60;;;0.60;;
2896;SDS011;1458;49.728;9.228;2022-08-21T05:58:55;0.70;;;0.70;;
2896;SDS011;1458;49.728;9.228;2022-08-21T06:01:23;0.70;;;0.70;;
2896;SDS011;1458;49.728;9.228;2022-08-21T06:03:50;0.87;;;0.87;;
2896;SDS011;1458;49.728;9.228;2022-08-21T06:06:27;0.90;;;0.90;;
2896;SDS011;1458;49.728;9.228;2022-08-21T06:08:55;0.90;;;0.90;;
2896;SDS011;1458;49.728;9.228;2022-08-21T06:11:41;0.80;;;0.80;;
2896;SDS011;1458;49.728;9.228;2022-08-21T06:14:11;1.10;;;1.10;;
2896;SDS011;1458;49.728;9.228;2022-08-21T06:16:41;1.20;;;1.20;;
2896;SDS011;1458;49.728;9.228;2022-08-21T06:19:08;1.40;;;1.40;;
2896;SDS011;1458;49.728;9.228;2022-08-21T06:21:36;1.90;;;1.90;;
2896;SDS011;1458;49.728;9.228;2022-08-21T06:24:04;2.03;;;2.03;;
2896;SDS011;1458;49.728;9.228;2022-08-21T06:26:32;1.90;;;1.90;;
2896;SDS011;1458;49.728;9.228;2022-08-21T06:29:00;1.50;;;1.50;;
2896;SDS011;1458;49.728;9.228;2022-08-21T06:31:28;1.90;;;1.90;;
2896;SDS011;1458;49.728;9.228;2022-08-21T06:33:56;1.60;;;1.60;;
2896;SDS011;1458;49.728;9.228;2022-08-21T06:36:36;2.10;;;2.10;;
2896;SDS011;1458;49.728;9.228;2022-08-21T06:39:03;2.20;;;2.20;;
2896;SDS011;1458;49.728;9.228;2022-08-21T06:41:31;3.00;;;3.00;;
2896;SDS011;1458;49.728;9.228;2022-08-21T06:43:59;4.20;;;4.20;;
2896;SDS011;1458;49.728;9.228;2022-08-21T06:46:29;4.50;;;4.50;;
2896;SDS011;1458;49.728;9.228;2022-08-21T06:48:57;4.50;;;4.50;;
2896;SDS011;1458;49.728;9.228;2022-08-21T06:51:25;4.50;;;4.50;;
2896;SDS011;1458;49.728;9.228;2022-08-21T06:53:54;4.30;;;4.30;;
2896;SDS011;1458;49.728;9.228;2022-08-21T06:56:21;4.20;;;4.20;;
2896;SDS011;1458;49.728;9.228;2022-08-21T06:58:49;4.20;;;4.20;;
2896;SDS011;1458;49.728;9.228;2022-08-21T07:01:22;4.40;;;4.40;;
2896;SDS011;1458;49.728;9.228;2022-08-21T07:03:55;4.43;;;4.43;;
2896;SDS011;1458;49.728;9.228;2022-08-21T07:06:35;4.60;;;4.60;;
2896;SDS011;1458;49.728;9.228;2022-08-21T07:09:02;4.80;;;4.80;;
2896;SDS011;1458;49.728;9.228;2022-08-21T07:11:30;4.20;;;4.20;;
2896;SDS011;1458;49.728;9.228;2022-08-21T07:13:58;4.40;;;4.40;;
2896;SDS011;1458;49.728;9.228;2022-08-21T07:16:25;5.30;;;5.30;;
2896;SDS011;1458;49.728;9.228;2022-08-21T07:18:55;5.53;;;5.53;;
2896;SDS011;1458;49.728;9.228;2022-08-21T07:21:22;6.80;;;6.70;;
2896;SDS011;1458;49.728;9.228;2022-08-21T07:23:50;6.77;;;6.67;;
2896;SDS011;1458;49.728;9.228;2022-08-21T07:26:28;6.70;;;6.60;;
2896;SDS011;1458;49.728;9.228;2022-08-21T07:28:56;6.50;;;6.50;;
2896;SDS011;1458;49.728;9.228;2022-08-21T07:31:35;6.70;;;6.60;;
2896;SDS011;1458;49.728;9.228;2022-08-21T07:34:04;6.60;;;6.60;;
2896;SDS011;1458;49.728;9.228;2022-08-21T07:39:23;7.50;;;7.40;;
2896;SDS011;1458;49.728;9.228;2022-08-21T07:41:54;7.90;;;7.80;;
2896;SDS011;1458;49.728;9.228;2022-08-21T07:44:21;7.20;;;7.10;;
2896;SDS011;1458;49.728;9.228;2022-08-21T07:49:52;7.30;;;7.20;;
2896;SDS011;1458;49.728;9.228;2022-08-21T07:52:22;7.77;;;7.67;;
2896;SDS011;1458;49.728;9.228;2022-08-21T07:54:50;7.70;;;7.60;;
2896;SDS011;1458;49.728;9.228;2022-08-21T07:57:18;7.63;;;7.53;;
2896;SDS011;1458;49.728;9.228;2022-08-21T07:59:45;7.50;;;7.40;;
2896;SDS011;1458;49.728;9.228;2022-08-21T08:02:20;7.60;;;7.50;;
2896;SDS011;1458;49.728;9.228;2022-08-21T08:04:49;7.70;;;7.60;;
2896;SDS011;1458;49.728;9.228;2022-08-21T08:07:18;7.80;;;7.70;;
2896;SDS011;1458;49.728;9.228;2022-08-21T08:09:46;7.60;;;7.50;;
2896;SDS011;1458;49.728;9.228;2022-08-21T08:15:04;8.10;;;8.00;;
2896;SDS011;1458;49.728;9.228;2022-08-21T08:17:35;7.60;;;7.50;;
2896;SDS011;1458;49.728;9.228;2022-08-21T08:20:05;8.67;;;8.57;;
2896;SDS011;1458;49.728;9.228;2022-08-21T08:22:36;8.40;;;8.30;;
2896;SDS011;1458;49.728;9.228;2022-08-21T08:25:07;7.97;;;7.87;;
2896;SDS011;1458;49.728;9.228;2022-08-21T08:27:36;8.30;;;8.20;;
2896;SDS011;1458;49.728;9.228;2022-08-21T08:30:05;8.13;;;8.03;;
2896;SDS011;1458;49.728;9.228;2022-08-21T08:32:36;8.30;;;8.20;;
2896;SDS011;1458;49.728;9.228;2022-08-21T08:35:06;7.80;;;7.70;;
2896;SDS011;1458;49.728;9.228;2022-08-21T08:37:39;8.70;;;8.60;;
2896;SDS011;1458;49.728;9.228;2022-08-21T08:40:10;8.60;;;8.50;;
2896;SDS011;1458;49.728;9.228;2022-08-21T08:42:49;8.90;;;8.70;;
2896;SDS011;1458;49.728;9.228;2022-08-21T08:45:17;8.90;;;8.70;;
2896;SDS011;1458;49.728;9.228;2022-08-21T08:47:51;9.20;;;9.00;;
2896;SDS011;1458;49.728;9.228;2022-08-21T08:50:25;9.10;;;8.90;;
2896;SDS011;1458;49.728;9.228;2022-08-21T08:53:14;9.40;;;9.20;;
2896;SDS011;1458;49.728;9.228;2022-08-21T08:55:46;9.90;;;9.70;;
2896;SDS011;1458;49.728;9.228;2022-08-21T08:58:16;9.47;;;9.27;;
2896;SDS011;1458;49.728;9.228;2022-08-21T09:00:50;9.33;;;9.13;;
2896;SDS011;1458;49.728;9.228;2022-08-21T09:03:20;9.30;;;9.10;;
2896;SDS011;1458;49.728;9.228;2022-08-21T09:05:53;9.47;;;9.27;;
2896;SDS011;1458;49.728;9.228;2022-08-21T09:08:32;9.43;;;9.23;;
2896;SDS011;1458;49.728;9.228;2022-08-21T09:11:23;9.77;;;9.57;;
2896;SDS011;1458;49.728;9.228;2022-08-21T09:15:15;10.20;;;10.00;;
2896;SDS011;1458;49.728;9.228;2022-08-21T09:17:59;9.60;;;9.40;;
2896;SDS011;1458;49.728;9.228;2022-08-21T09:20:47;9.80;;;9.60;;
2896;SDS011;1458;49.728;9.228;2022-08-21T09:23:33;11.50;;;11.20;;
2896;SDS011;1458;49.728;9.228;2022-08-21T09:26:12;11.80;;;11.50;;
2896;SDS011;1458;49.728;9.228;2022-08-21T09:28:41;11.30;;;11.00;;
2896;SDS011;1458;49.728;9.228;2022-08-21T09:35:12;12.53;;;12.13;;
2896;SDS011;1458;49.728;9.228;2022-08-21T09:37:50;12.27;;;11.97;;
2896;SDS011;1458;49.728;9.228;2022-08-21T09:43:06;12.90;;;12.50;;
2896;SDS011;1458;49.728;9.228;2022-08-21T09:45:44;12.60;;;12.20;;
2896;SDS011;1458;49.728;9.228;2022-08-21T09:48:20;13.00;;;12.60;;
2896;SDS011;1458;49.728;9.228;2022-08-21T09:50:50;12.80;;;12.40;;
2896;SDS011;1458;49.728;9.228;2022-08-21T09:53:21;13.30;;;12.90;;
2896;SDS011;1458;49.728;9.228;2022-08-21T09:55:52;13.43;;;13.03;;
2896;SDS011;1458;49.728;9.228;2022-08-21T09:58:40;13.00;;;12.60;;
2896;SDS011;1458;49.728;9.228;2022-08-21T10:01:13;13.10;;;12.70;;
2896;SDS011;1458;49.728;9.228;2022-08-21T10:03:43;12.87;;;12.47;;
2896;SDS011;1458;49.728;9.228;2022-08-21T10:10:19;13.60;;;13.20;;
2896;SDS011;1458;49.728;9.228;2022-08-21T10:15:51;13.13;;;12.73;;
2896;SDS011;1458;49.728;9.228;2022-08-21T10:18:26;13.70;;;13.30;;
2896;SDS011;1458;49.728;9.228;2022-08-21T10:21:01;12.57;;;12.20;;
2896;SDS011;1458;49.728;9.228;2022-08-21T10:23:40;13.03;;;12.63;;
2896;SDS011;1458;49.728;9.228;2022-08-21T10:26:27;13.37;;;12.97;;
2896;SDS011;1458;49.728;9.228;2022-08-21T10:30:21;12.70;;;12.30;;
2896;SDS011;1458;49.728;9.228;2022-08-21T10:35:56;13.13;;;12.73;;
2896;SDS011;1458;49.728;9.228;2022-08-21T10:38:41;12.70;;;12.30;;
2896;SDS011;1458;49.728;9.228;2022-08-21T10:44:41;13.40;;;13.00;;
2896;SDS011;1458;49.728;9.228;2022-08-21T10:50:49;13.30;;;12.90;;
2896;SDS011;1458;49.728;9.228;2022-08-21T10:53:28;13.83;;;13.43;;
2896;SDS011;1458;49.728;9.228;2022-08-21T10:56:19;13.60;;;13.20;;
2896;SDS011;1458;49.728;9.228;2022-08-21T10:58:57;13.00;;;12.60;;
2896;SDS011;1458;49.728;9.228;2022-08-21T11:02:53;13.47;;;13.07;;
2896;SDS011;1458;49.728;9.228;2022-08-21T11:05:29;14.10;;;13.60;;
2896;SDS011;1458;49.728;9.228;2022-08-21T11:08:02;13.33;;;12.93;;
2896;SDS011;1458;49.728;9.228;2022-08-21T11:10:36;13.77;;;13.37;;
2896;SDS011;1458;49.728;9.228;2022-08-21T11:13:08;13.30;;;12.90;;
2896;SDS011;1458;49.728;9.228;2022-08-21T11:15:48;13.43;;;13.03;;
2896;SDS011;1458;49.728;9.228;2022-08-21T11:18:24;13.50;;;13.10;;
2896;SDS011;1458;49.728;9.228;2022-08-21T11:20:59;13.40;;;13.00;;
2896;SDS011;1458;49.728;9.228;2022-08-21T11:23:39;14.10;;;13.60;;
2896;SDS011;1458;49.728;9.228;2022-08-21T11:26:13;13.43;;;13.03;;
2896;SDS011;1458;49.728;9.228;2022-08-21T11:28:50;13.27;;;12.87;;
2896;SDS011;1458;49.728;9.228;2022-08-21T11:31:31;12.77;;;12.37;;
2896;SDS011;1458;49.728;9.228;2022-08-21T11:34:14;12.53;;;12.13;;
2896;SDS011;1458;49.728;9.228;2022-08-21T11:36:57;12.60;;;12.20;;
2896;SDS011;1458;49.728;9.228;2022-08-21T11:39:35;12.10;;;11.80;;
2896;SDS011;1458;49.728;9.228;2022-08-21T11:42:16;13.27;;;12.87;;
2896;SDS011;1458;49.728;9.228;2022-08-21T11:45:10;13.50;;;13.10;;
2896;SDS011;1458;49.728;9.228;2022-08-21T11:47:56;13.20;;;12.80;;
2896;SDS011;1458;49.728;9.228;2022-08-21T11:50:32;13.70;;;13.20;;
2896;SDS011;1458;49.728;9.228;2022-08-21T11:53:05;13.20;;;12.80;;
2896;SDS011;1458;49.728;9.228;2022-08-21T11:55:40;13.50;;;13.10;;
2896;SDS011;1458;49.728;9.228;2022-08-21T12:00:41;13.67;;;13.27;;
2896;SDS011;1458;49.728;9.228;2022-08-21T12:03:16;12.80;;;12.40;;
2896;SDS011;1458;49.728;9.228;2022-08-21T12:05:52;13.87;;;13.47;;
2896;SDS011;1458;49.728;9.228;2022-08-21T12:08:27;13.53;;;13.13;;
2896;SDS011;1458;49.728;9.228;2022-08-21T12:11:02;13.10;;;12.70;;
2896;SDS011;1458;49.728;9.228;2022-08-21T12:13:34;13.83;;;13.43;;
2896;SDS011;1458;49.728;9.228;2022-08-21T12:16:06;13.20;;;12.80;;
2896;SDS011;1458;49.728;9.228;2022-08-21T12:18:38;13.17;;;12.77;;
2896;SDS011;1458;49.728;9.228;2022-08-21T12:21:17;14.10;;;13.60;;
2896;SDS011;1458;49.728;9.228;2022-08-21T12:23:57;14.07;;;13.57;;
2896;SDS011;1458;49.728;9.228;2022-08-21T12:26:32;13.50;;;13.10;;
2896;SDS011;1458;49.728;9.228;2022-08-21T12:29:16;13.90;;;13.50;;
2896;SDS011;1458;49.728;9.228;2022-08-21T12:31:55;13.60;;;13.20;;
2896;SDS011;1458;49.728;9.228;2022-08-21T12:34:31;13.10;;;12.70;;
2896;SDS011;1458;49.728;9.228;2022-08-21T12:37:04;13.60;;;13.20;;
2896;SDS011;1458;49.728;9.228;2022-08-21T12:39:44;13.30;;;12.90;;
2896;SDS011;1458;49.728;9.228;2022-08-21T12:42:19;13.13;;;12.73;;
2896;SDS011;1458;49.728;9.228;2022-08-21T12:44:58;13.83;;;13.43;;
2896;SDS011;1458;49.728;9.228;2022-08-21T12:47:33;13.40;;;13.00;;
2896;SDS011;1458;49.728;9.228;2022-08-21T12:50:13;13.40;;;13.00;;
2896;SDS011;1458;49.728;9.228;2022-08-21T12:52:57;13.00;;;12.60;;
2896;SDS011;1458;49.728;9.228;2022-08-21T12:55:32;13.40;;;13.00;;
2896;SDS011;1458;49.728;9.228;2022-08-21T12:58:01;13.70;;;13.30;;
2896;SDS011;1458;49.728;9.228;2022-08-21T13:00:28;13.67;;;13.27;;
2896;SDS011;1458;49.728;9.228;2022-08-21T13:02:56;13.50;;;13.10;;
2896;SDS011;1458;49.728;9.228;2022-08-21T13:05:29;13.53;;;13.13;;
2896;SDS011;1458;49.728;9.228;2022-08-21T13:08:02;13.60;;;13.20;;
2896;SDS011;1458;49.728;9.228;2022-08-21T13:10:34;13.60;;;13.20;;
2896;SDS011;1458;49.728;9.228;2022-08-21T13:13:06;14.03;;;13.53;;
2896;SDS011;1458;49.728;9.228;2022-08-21T13:15:39;13.20;;;12.80;;
2896;SDS011;1458;49.728;9.228;2022-08-21T13:18:08;13.90;;;13.40;;
2896;SDS011;1458;49.728;9.228;2022-08-21T13:21:02;14.10;;;13.60;;
2896;SDS011;1458;49.728;9.228;2022-08-21T13:23:33;14.07;;;13.57;;
2896;SDS011;1458;49.728;9.228;2022-08-21T13:26:11;14.20;;;13.70;;
2896;SDS011;1458;49.728;9.228;2022-08-21T13:28:40;13.70;;;13.20;;
2896;SDS011;1458;49.728;9.228;2022-08-21T13:31:13;13.90;;;13.43;;
2896;SDS011;1458;49.728;9.228;2022-08-21T13:33:49;13.40;;;13.00;;
2896;SDS011;1458;49.728;9.228;2022-08-21T13:36:20;13.47;;;13.07;;
2896;SDS011;1458;49.728;9.228;2022-08-21T13:38:53;14.03;;;13.53;;
2896;SDS011;1458;49.728;9.228;2022-08-21T13:41:21;13.40;;;13.00;;
2896;SDS011;1458;49.728;9.228;2022-08-21T13:43:56;13.17;;;12.77;;
2896;SDS011;1458;49.728;9.228;2022-08-21T13:46:29;12.80;;;12.40;;
2896;SDS011;1458;49.728;9.228;2022-08-21T13:49:00;13.40;;;13.00;;
2896;SDS011;1458;49.728;9.228;2022-08-21T13:51:33;13.57;;;13.17;;
2896;SDS011;1458;49.728;9.228;2022-08-21T13:54:13;13.03;;;12.63;;
2896;SDS011;1458;49.728;9.228;2022-08-21T13:56:46;13.50;;;13.10;;
2896;SDS011;1458;49.728;9.228;2022-08-21T13:59:23;13.87;;;13.37;;
2896;SDS011;1458;49.728;9.228;2022-08-21T14:01:55;13.60;;;13.20;;
2896;SDS011;1458;49.728;9.228;2022-08-21T14:04:29;14.00;;;13.50;;
2896;SDS011;1458;49.728;9.228;2022-08-21T14:07:03;13.60;;;13.20;;
2896;SDS011;1458;49.728;9.228;2022-08-21T14:09:43;13.47;;;13.07;;
2896;SDS011;1458;49.728;9.228;2022-08-21T14:12:14;13.63;;;13.20;;
2896;SDS011;1458;49.728;9.228;2022-08-21T14:14:45;14.20;;;13.70;;
2896;SDS011;1458;49.728;9.228;2022-08-21T14:17:14;13.80;;;13.40;;
2896;SDS011;1458;49.728;9.228;2022-08-21T14:19:54;13.77;;;13.33;;
2896;SDS011;1458;49.728;9.228;2022-08-21T14:22:28;14.47;;;13.97;;
2896;SDS011;1458;49.728;9.228;2022-08-21T14:25:03;14.63;;;14.13;;
2896;SDS011;1458;49.728;9.228;2022-08-21T14:27:35;14.10;;;13.60;;
2896;SDS011;1458;49.728;9.228;2022-08-21T14:30:13;14.43;;;13.93;;
2896;SDS011;1458;49.728;9.228;2022-08-21T14:32:46;14.20;;;13.70;;
2896;SDS011;1458;49.728;9.228;2022-08-21T14:35:14;14.07;;;13.57;;
2896;SDS011;1458;49.728;9.228;2022-08-21T14:37:45;14.17;;;13.67;;
2896;SDS011;1458;49.728;9.228;2022-08-21T14:40:16;13.83;;;13.33;;
2896;SDS011;1458;49.728;9.228;2022-08-21T14:42:44;14.10;;;13.60;;
2896;SDS011;1458;49.728;9.228;2022-08-21T14:45:15;13.73;;;13.30;;
2896;SDS011;1458;49.728;9.228;2022-08-21T14:47:45;14.00;;;13.50;;
2896;SDS011;1458;49.728;9.228;2022-08-21T14:50:13;13.87;;;13.37;;
2896;SDS011;1458;49.728;9.228;2022-08-21T14:52:40;13.87;;;13.37;;
2896;SDS011;1458;49.728;9.228;2022-08-21T14:55:12;14.00;;;13.50;;
2896;SDS011;1458;49.728;9.228;2022-08-21T14:57:45;13.90;;;13.40;;
2896;SDS011;1458;49.728;9.228;2022-08-21T15:00:16;14.00;;;13.50;;
2896;SDS011;1458;49.728;9.228;2022-08-21T15:02:47;13.50;;;13.10;;
2896;SDS011;1458;49.728;9.228;2022-08-21T15:05:15;14.30;;;13.80;;
2896;SDS011;1458;49.728;9.228;2022-08-21T15:07:46;14.20;;;13.70;;
2896;SDS011;1458;49.728;9.228;2022-08-21T15:10:15;14.47;;;13.97;;
2896;SDS011;1458;49.728;9.228;2022-08-21T15:12:43;14.10;;;13.60;;
2896;SDS011;1458;49.728;9.228;2022-08-21T15:15:12;14.10;;;13.60;;
2896;SDS011;1458;49.728;9.228;2022-08-21T15:17:41;14.10;;;13.60;;
2896;SDS011;1458;49.728;9.228;2022-08-21T15:20:10;14.20;;;13.70;;
2896;SDS011;1458;49.728;9.228;2022-08-21T15:22:39;14.60;;;14.10;;
2896;SDS011;1458;49.728;9.228;2022-08-21T15:25:07;13.80;;;13.30;;
2896;SDS011;1458;49.728;9.228;2022-08-21T15:27:36;14.13;;;13.63;;
2896;SDS011;1458;49.728;9.228;2022-08-21T15:30:05;13.90;;;13.40;;
2896;SDS011;1458;49.728;9.228;2022-08-21T15:32:34;13.90;;;13.40;;
2896;SDS011;1458;49.728;9.228;2022-08-21T15:35:03;14.27;;;13.77;;
2896;SDS011;1458;49.728;9.228;2022-08-21T15:37:32;14.37;;;13.87;;
2896;SDS011;1458;49.728;9.228;2022-08-21T15:40:00;14.70;;;14.20;;
2896;SDS011;1458;49.728;9.228;2022-08-21T15:42:30;14.60;;;14.10;;
2896;SDS011;1458;49.728;9.228;2022-08-21T15:44:59;14.50;;;14.00;;
2896;SDS011;1458;49.728;9.228;2022-08-21T15:47:29;14.20;;;13.70;;
2896;SDS011;1458;49.728;9.228;2022-08-21T15:50:01;14.47;;;13.97;;
2896;SDS011;1458;49.728;9.228;2022-08-21T15:52:31;14.57;;;14.07;;
2896;SDS011;1458;49.728;9.228;2022-08-21T15:57:30;14.30;;;13.80;;
2896;SDS011;1458;49.728;9.228;2022-08-21T16:00:00;14.40;;;13.90;;
2896;SDS011;1458;49.728;9.228;2022-08-21T16:02:37;14.17;;;13.67;;
2896;SDS011;1458;49.728;9.228;2022-08-21T16:05:08;14.10;;;13.60;;
2896;SDS011;1458;49.728;9.228;2022-08-21T16:07:37;14.50;;;14.00;;
2896;SDS011;1458;49.728;9.228;2022-08-21T16:10:05;14.70;;;14.20;;
2896;SDS011;1458;49.728;9.228;2022-08-21T16:12:36;14.20;;;13.70;;
2896;SDS011;1458;49.728;9.228;2022-08-21T16:15:13;14.93;;;14.37;;
2896;SDS011;1458;49.728;9.228;2022-08-21T16:17:43;14.20;;;13.70;;